createdAt,value
2023-05-08T00:00:06.663Z,2.00
2023-05-08T00:03:55.125Z,3.00
2023-05-08T00:06:27.824Z,2.00
2023-05-08T00:08:58.871Z,3.00
2023-05-08T00:11:26.918Z,2.00
2023-05-08T00:14:15.198Z,2.00
2023-05-08T00:16:43.429Z,3.00
2023-05-08T00:19:11.473Z,2.00
2023-05-08T00:21:43.417Z,2.00
2023-05-08T00:25:11.335Z,2.00
2023-05-08T00:29:40.168Z,3.00
2023-05-08T00:33:48.733Z,6.00
2023-05-08T00:36:17.717Z,2.00
2023-05-08T00:38:46.185Z,3.00
2023-05-08T00:41:14.275Z,5.33
2023-05-08T00:43:42.320Z,3.00
2023-05-08T00:46:10.532Z,2.00
2023-05-08T00:48:40.029Z,4.00
2023-05-08T00:51:09.579Z,2.00
2023-05-08T00:54:58.652Z,2.00
2023-05-08T00:59:27.561Z,2.50
2023-05-08T01:03:46.853Z,1.00
2023-05-08T01:06:55.489Z,2.00
2023-05-08T01:09:23.619Z,2.00
2023-05-08T01:12:08.875Z,2.00
2023-05-08T01:14:51.462Z,4.00
2023-05-08T01:17:39.956Z,3.00
2023-05-08T01:20:20.383Z,2.00
2023-05-08T01:23:12.940Z,2.00
2023-05-08T01:26:02.878Z,2.00
2023-05-08T01:28:46.364Z,3.00
2023-05-08T01:31:26.381Z,2.33
2023-05-08T01:34:09.190Z,3.00
2023-05-08T01:37:46.521Z,2.00
2023-05-08T01:41:18.663Z,6.00
2023-05-08T01:45:59.199Z,3.00
2023-05-08T01:50:30.740Z,3.00
2023-05-08T01:54:08.732Z,3.00
2023-05-08T01:56:42.709Z,4.00
2023-05-08T02:00:10.958Z,3.00
2023-05-08T02:04:22.482Z,4.00
2023-05-08T02:06:52.361Z,2.00
2023-05-08T02:10:21.615Z,3.00
2023-05-08T02:14:49.827Z,4.00
2023-05-08T02:19:18.603Z,3.00
2023-05-08T02:23:47.453Z,4.00
2023-05-08T02:32:25.257Z,3.00
2023-05-08T02:35:55.614Z,8.00
2023-05-08T02:38:26.528Z,4.00
2023-05-08T02:41:54.902Z,6.00
2023-05-08T02:46:26.560Z,3.00
2023-05-08T02:51:03.948Z,3.00
2023-05-08T02:55:47.874Z,2.00
2023-05-08T03:00:19.380Z,4.00
2023-05-08T03:04:28.187Z,3.00
2023-05-08T03:06:58.437Z,2.00
2023-05-08T03:09:32.138Z,4.00
2023-05-08T03:13:00.408Z,3.00
2023-05-08T03:17:29.265Z,5.00
2023-05-08T03:22:00.702Z,5.00
2023-05-08T03:26:29.575Z,5.00
2023-05-08T03:30:58.238Z,3.00
2023-05-08T03:35:26.503Z,7.00
2023-05-08T03:39:55.292Z,4.00
2023-05-08T03:43:16.730Z,6.00
2023-05-08T03:46:09.242Z,6.50
2023-05-08T03:48:39.157Z,3.00
2023-05-08T03:51:08.015Z,5.00
2023-05-08T03:53:38.371Z,7.00
2023-05-08T03:57:07.313Z,4.00
2023-05-08T04:01:34.290Z,4.00
2023-05-08T04:06:14.847Z,4.00
2023-05-08T04:10:41.746Z,6.00
2023-05-08T04:15:10.718Z,5.50
2023-05-08T04:17:53.851Z,7.00
2023-05-08T04:20:26.099Z,5.00
2023-05-08T04:22:56.050Z,3.50
2023-05-08T04:25:26.098Z,4.00
2023-05-08T04:28:54.931Z,3.00
2023-05-08T04:33:23.842Z,1.50
2023-05-08T04:37:52.691Z,2.50
2023-05-08T04:42:21.156Z,1.00
2023-05-08T04:46:49.926Z,3.00
2023-05-08T04:50:59.097Z,4.50
2023-05-08T04:55:27.970Z,4.00
2023-05-08T04:59:56.725Z,3.00
2023-05-08T05:04:25.552Z,3.50
2023-05-08T05:07:38.291Z,4.00
2023-05-08T05:11:07.425Z,3.00
2023-05-08T05:15:36.191Z,6.00
2023-05-08T05:20:05.023Z,6.00
2023-05-08T05:24:33.805Z,6.50
2023-05-08T05:29:02.002Z,5.00
2023-05-08T05:33:30.943Z,3.00
2023-05-08T05:37:59.429Z,5.00
2023-05-08T05:42:12.272Z,1.00
2023-05-08T05:46:25.621Z,6.00
2023-05-08T05:50:42.032Z,4.00
2023-05-08T05:54:51.163Z,7.00
2023-05-08T05:59:19.908Z,6.00
2023-05-08T06:03:14.062Z,6.00
2023-05-08T06:07:42.646Z,5.50
2023-05-08T06:14:19.928Z,6.00
2023-05-08T06:17:48.176Z,4.50
2023-05-08T06:20:17.078Z,5.50
2023-05-08T06:23:45.909Z,4.00
2023-05-08T06:28:14.656Z,4.50
2023-05-08T06:30:43.781Z,4.00
2023-05-08T06:34:12.676Z,4.00
2023-05-08T06:38:21.416Z,10.00
2023-05-08T06:40:51.993Z,4.00
2023-05-08T06:43:23.562Z,8.00
2023-05-08T06:45:53.161Z,8.00
2023-05-08T06:48:21.242Z,9.00
2023-05-08T06:50:51.884Z,7.00
2023-05-08T06:54:20.668Z,4.00
2023-05-08T06:59:00.443Z,3.00
2023-05-08T07:02:17.876Z,3.00
2023-05-08T07:04:54.084Z,9.00
2023-05-08T07:07:22.044Z,6.00
2023-05-08T07:09:50.027Z,4.00
2023-05-08T07:12:18.034Z,4.00
2023-05-08T07:14:46.039Z,6.50
2023-05-08T07:17:14.016Z,5.00
2023-05-08T07:19:41.901Z,4.50
2023-05-08T07:22:11.070Z,4.00
2023-05-08T07:24:38.948Z,7.33
2023-05-08T07:27:06.967Z,3.00
2023-05-08T07:29:36.202Z,6.00
2023-05-08T07:32:08.568Z,9.00
2023-05-08T07:34:36.533Z,9.50
2023-05-08T07:37:04.560Z,5.50
2023-05-08T07:39:32.492Z,5.00
2023-05-08T07:42:00.567Z,5.00
2023-05-08T07:44:28.548Z,7.00
2023-05-08T07:46:56.578Z,4.00
2023-05-08T07:49:24.686Z,8.67
2023-05-08T07:51:52.765Z,5.50
2023-05-08T07:54:20.638Z,7.00
2023-05-08T07:56:48.560Z,8.00
2023-05-08T07:59:16.626Z,5.00
2023-05-08T08:01:47.488Z,5.50
2023-05-08T08:04:16.293Z,7.00
2023-05-08T08:06:44.392Z,6.00
2023-05-08T08:09:12.373Z,7.50
2023-05-08T08:11:40.685Z,5.00
2023-05-08T08:14:09.081Z,6.33
2023-05-08T08:16:37.098Z,5.00
2023-05-08T08:19:05.159Z,7.00
2023-05-08T08:21:33.210Z,6.00
2023-05-08T08:24:01.080Z,6.50
2023-05-08T08:26:28.960Z,5.00
2023-05-08T08:28:56.821Z,6.00
2023-05-08T08:31:25.120Z,6.00
2023-05-08T08:33:53.168Z,7.00
2023-05-08T08:36:21.081Z,5.00
2023-05-08T08:38:48.950Z,5.00
2023-05-08T08:41:16.926Z,5.00
2023-05-08T08:43:44.798Z,4.00
2023-05-08T08:46:15.553Z,6.00
2023-05-08T08:48:47.540Z,4.00
2023-05-08T08:51:46.223Z,6.00
2023-05-08T08:54:16.373Z,7.50
2023-05-08T08:56:49.590Z,6.00
2023-05-08T08:59:19.144Z,5.00
2023-05-08T09:01:55.820Z,7.00
2023-05-08T09:04:27.303Z,9.50
2023-05-08T09:06:55.808Z,5.00
2023-05-08T09:09:23.783Z,5.67
2023-05-08T09:11:53.420Z,6.00
2023-05-08T09:14:21.494Z,4.00
2023-05-08T09:16:49.389Z,5.00
2023-05-08T09:19:18.056Z,6.00
2023-05-08T09:21:46.419Z,6.50
2023-05-08T09:24:14.408Z,4.00
2023-05-08T09:26:42.755Z,5.00
2023-05-08T09:29:22.319Z,7.33
2023-05-08T09:31:52.914Z,5.00
2023-05-08T09:34:33.441Z,6.00
2023-05-08T09:37:10.428Z,6.00
2023-05-08T09:39:43.355Z,6.00
2023-05-08T09:42:11.311Z,6.00
2023-05-08T09:44:51.263Z,4.00
2023-05-08T09:47:21.952Z,4.00
2023-05-08T09:50:00.254Z,5.00
2023-05-08T09:52:29.680Z,6.00
2023-05-08T09:54:59.376Z,7.00
2023-05-08T09:57:29.792Z,6.00
2023-05-08T10:00:10.262Z,6.50
2023-05-08T10:02:41.562Z,6.00
2023-05-08T10:05:31.409Z,5.00
2023-05-08T10:08:18.771Z,4.00
2023-05-08T10:10:47.284Z,7.00
2023-05-08T10:13:15.407Z,8.00
2023-05-08T10:15:44.681Z,5.00
2023-05-08T10:18:17.797Z,4.00
2023-05-08T10:20:48.930Z,5.00
2023-05-08T10:23:19.210Z,6.67
2023-05-08T10:25:49.921Z,5.00
2023-05-08T10:28:40.983Z,6.50
2023-05-08T10:31:16.266Z,8.00
2023-05-08T10:33:46.675Z,6.00
2023-05-08T10:36:15.748Z,5.00
2023-05-08T10:38:43.988Z,4.00
2023-05-08T10:41:12.352Z,6.00
2023-05-08T10:43:43.489Z,6.00
2023-05-08T10:46:25.872Z,5.00
2023-05-08T10:49:11.968Z,5.50
2023-05-08T10:51:47.277Z,3.00
2023-05-08T10:54:32.187Z,6.00
2023-05-08T10:57:11.164Z,6.00
2023-05-08T10:59:39.351Z,5.00
2023-05-08T11:02:08.529Z,4.00
2023-05-08T11:04:36.877Z,6.00
2023-05-08T11:07:05.625Z,6.00
2023-05-08T11:09:43.104Z,5.00
2023-05-08T11:12:20.453Z,8.00
2023-05-08T11:15:09.858Z,5.00
2023-05-08T11:17:39.546Z,7.00
2023-05-08T11:20:08.008Z,5.00
2023-05-08T11:22:37.192Z,7.00
2023-05-08T11:25:09.060Z,6.67
2023-05-08T11:27:39.678Z,6.00
2023-05-08T11:30:24.497Z,5.00
2023-05-08T11:32:58.481Z,4.50
2023-05-08T11:35:50.167Z,6.00
2023-05-08T11:38:22.695Z,5.00
2023-05-08T11:40:56.593Z,6.00
2023-05-08T11:43:33.419Z,8.00
2023-05-08T11:46:13.436Z,5.00
2023-05-08T11:48:41.437Z,5.00
2023-05-08T11:51:09.761Z,6.00
2023-05-08T11:53:38.117Z,6.00
2023-05-08T11:56:06.211Z,6.00
2023-05-08T11:58:34.162Z,5.00
2023-05-08T12:01:02.285Z,7.50
2023-05-08T12:03:30.397Z,8.50
2023-05-08T12:05:59.900Z,4.67
2023-05-08T12:08:28.110Z,4.00
2023-05-08T12:10:57.694Z,6.00
2023-05-08T12:13:27.725Z,6.00
2023-05-08T12:15:58.963Z,5.00
2023-05-08T12:18:29.422Z,5.00
2023-05-08T12:21:00.019Z,5.00
2023-05-08T12:23:31.092Z,6.00
2023-05-08T12:26:00.570Z,4.00
2023-05-08T12:28:29.900Z,5.00
2023-05-08T12:30:58.626Z,4.00
2023-05-08T12:33:28.702Z,5.50
2023-05-08T12:35:57.260Z,3.00
2023-05-08T12:38:27.051Z,3.00
2023-05-08T12:40:57.893Z,4.50
2023-05-08T12:43:34.752Z,4.00
2023-05-08T12:46:06.400Z,4.00
2023-05-08T12:48:34.444Z,5.00
2023-05-08T12:51:05.604Z,2.00
2023-05-08T12:53:33.777Z,5.00
2023-05-08T12:56:04.291Z,3.33
2023-05-08T12:58:34.553Z,4.50
2023-05-08T13:01:10.292Z,4.00
2023-05-08T13:03:38.715Z,5.00
2023-05-08T13:06:07.536Z,2.00
2023-05-08T13:08:38.314Z,2.00
2023-05-08T13:11:07.333Z,4.00
2023-05-08T13:13:37.135Z,3.00
2023-05-08T13:16:06.984Z,4.00
2023-05-08T13:18:37.895Z,3.33
2023-05-08T13:21:06.111Z,3.00
2023-05-08T13:23:34.006Z,3.00
2023-05-08T13:28:29.694Z,2.67
2023-05-08T13:30:57.525Z,2.50
2023-05-08T13:33:25.559Z,3.00
2023-05-08T13:35:54.273Z,3.00
2023-05-08T13:38:22.145Z,2.00
2023-05-08T13:40:50.043Z,4.00
2023-05-08T13:43:18.061Z,3.00
2023-05-08T13:45:45.993Z,3.00
2023-05-08T13:48:13.842Z,3.00
2023-05-08T13:50:41.941Z,3.00
2023-05-08T13:53:09.912Z,3.00
2023-05-08T13:55:38.013Z,3.00
2023-05-08T13:58:05.912Z,4.00
2023-05-08T14:00:34.616Z,3.00
2023-05-08T14:03:03.208Z,4.00
2023-05-08T14:05:33.282Z,3.00
2023-05-08T14:08:01.181Z,5.00
2023-05-08T14:10:29.094Z,3.00
2023-05-08T14:12:57.044Z,4.00
2023-05-08T14:15:29.233Z,4.00
2023-05-08T14:18:04.444Z,3.00
2023-05-08T14:20:32.352Z,3.00
2023-05-08T14:23:00.459Z,3.00
2023-05-08T14:25:28.316Z,4.00
2023-05-08T14:27:56.197Z,3.50
2023-05-08T14:30:24.216Z,3.33
2023-05-08T14:32:52.123Z,2.00
2023-05-08T14:35:20.077Z,4.00
2023-05-08T14:37:48.111Z,4.00
2023-05-08T14:40:16.005Z,3.00
2023-05-08T14:42:43.889Z,3.00
2023-05-08T14:45:12.201Z,2.00
2023-05-08T14:47:40.598Z,2.00
2023-05-08T14:50:08.831Z,3.00
2023-05-08T14:52:36.699Z,3.00
2023-05-08T14:55:05.205Z,3.00
2023-05-08T14:57:33.350Z,4.00
2023-05-08T15:00:01.275Z,4.00
2023-05-08T15:02:29.189Z,4.00
2023-05-08T15:04:57.158Z,3.50
2023-05-08T15:07:28.280Z,2.00
2023-05-08T15:09:59.060Z,4.50
2023-05-08T15:12:27.029Z,3.00
2023-05-08T15:14:54.866Z,5.50
2023-05-08T15:17:22.770Z,3.00
2023-05-08T15:19:50.740Z,1.00
2023-05-08T15:22:18.679Z,4.00
2023-05-08T15:24:46.648Z,3.00
2023-05-08T15:27:14.697Z,2.00
2023-05-08T15:29:42.535Z,3.00
2023-05-08T15:32:10.526Z,3.00
2023-05-08T15:34:40.001Z,2.50
2023-05-08T15:37:08.701Z,3.00
2023-05-08T15:39:36.972Z,3.00
2023-05-08T15:42:05.171Z,3.00
2023-05-08T15:44:52.578Z,4.00
2023-05-08T15:47:23.013Z,6.50
2023-05-08T15:49:51.288Z,4.00
2023-05-08T15:52:19.982Z,3.50
2023-05-08T15:54:48.380Z,4.00
2023-05-08T15:57:16.852Z,3.00
2023-05-08T15:59:44.719Z,2.00
2023-05-08T16:02:12.754Z,4.50
2023-05-08T16:04:40.746Z,2.00
2023-05-08T16:07:08.594Z,2.00
2023-05-08T16:09:36.612Z,3.67
2023-05-08T16:12:04.712Z,2.50
2023-05-08T16:14:32.610Z,3.00
2023-05-08T16:17:00.523Z,3.00
2023-05-08T16:19:28.964Z,2.50
2023-05-08T16:21:56.890Z,3.00
2023-05-08T16:24:24.767Z,4.50
2023-05-08T16:26:52.648Z,4.00
2023-05-08T16:29:20.565Z,2.00
2023-05-08T16:31:48.450Z,2.00
2023-05-08T16:34:16.594Z,4.00
2023-05-08T16:36:44.568Z,4.00
2023-05-08T16:39:12.482Z,2.00
2023-05-08T16:41:40.340Z,5.00
2023-05-08T16:44:08.288Z,3.00
2023-05-08T16:46:36.144Z,3.33
2023-05-08T16:49:04.020Z,2.00
2023-05-08T16:51:32.448Z,4.00
2023-05-08T16:54:00.326Z,3.00
2023-05-08T16:56:28.214Z,4.00
2023-05-08T16:58:56.576Z,4.00
2023-05-08T17:01:24.561Z,3.00
2023-05-08T17:03:52.475Z,3.00
2023-05-08T17:06:20.894Z,4.00
2023-05-08T17:08:48.849Z,4.00
2023-05-08T17:11:16.736Z,4.00
2023-05-08T17:13:46.290Z,3.00
2023-05-08T17:16:14.264Z,4.00
2023-05-08T17:18:42.283Z,4.33
2023-05-08T17:21:10.212Z,5.00
2023-05-08T17:23:38.082Z,3.50
2023-05-08T17:26:06.194Z,3.00
2023-05-08T17:28:34.235Z,4.00
2023-05-08T17:31:02.469Z,3.00
2023-05-08T17:33:30.390Z,3.00
2023-05-08T17:35:58.355Z,4.00
2023-05-08T17:38:26.346Z,4.00
2023-05-08T17:40:54.355Z,4.00
2023-05-08T17:43:22.327Z,2.00
2023-05-08T17:45:50.297Z,3.00
2023-05-08T17:50:47.064Z,4.50
2023-05-08T17:53:14.955Z,4.00
2023-05-08T17:55:42.925Z,5.00
2023-05-08T17:58:10.738Z,4.00
2023-05-08T18:00:38.574Z,3.00
2023-05-08T18:03:06.623Z,4.00
2023-05-08T18:05:34.572Z,4.00
2023-05-08T18:08:02.515Z,4.00
2023-05-08T18:10:30.445Z,4.50
2023-05-08T18:12:58.752Z,6.00
2023-05-08T18:15:26.731Z,3.00
2023-05-08T18:17:54.787Z,5.00
2023-05-08T18:20:23.619Z,3.33
2023-05-08T18:22:52.086Z,3.00
2023-05-08T18:25:20.048Z,4.00
2023-05-08T18:27:50.178Z,5.00
2023-05-08T18:30:18.272Z,3.50
2023-05-08T18:32:46.181Z,6.00
2023-05-08T18:35:14.135Z,4.33
2023-05-08T18:37:42.405Z,7.00
2023-05-08T18:40:11.026Z,4.00
2023-05-08T18:42:38.981Z,4.00
2023-05-08T18:45:07.462Z,4.00
2023-05-08T18:47:35.419Z,7.00
2023-05-08T18:50:03.674Z,6.00
2023-05-08T18:52:31.616Z,9.00
2023-05-08T18:54:59.553Z,8.00
2023-05-08T18:57:27.594Z,10.00
2023-05-08T18:59:55.511Z,12.50
2023-05-08T19:02:24.950Z,11.00
2023-05-08T19:04:52.930Z,8.50
2023-05-08T19:07:20.903Z,10.33
2023-05-08T19:09:48.901Z,9.50
2023-05-08T19:12:16.850Z,9.00
2023-05-08T19:14:44.768Z,8.00
2023-05-08T19:17:12.646Z,6.50
2023-05-08T19:19:40.571Z,8.00
2023-05-08T19:22:08.526Z,9.00
2023-05-08T19:24:36.508Z,15.00
2023-05-08T19:27:04.453Z,8.00
2023-05-08T19:29:37.960Z,11.00
2023-05-08T19:32:07.799Z,12.00
2023-05-08T19:34:37.133Z,13.00
2023-05-08T19:37:05.077Z,13.33
2023-05-08T19:39:33.126Z,12.00
2023-05-08T19:42:01.031Z,17.50
2023-05-08T19:44:30.043Z,13.00
2023-05-08T19:46:58.530Z,11.00
2023-05-08T19:49:26.511Z,7.00
2023-05-08T19:51:54.567Z,13.50
2023-05-08T19:54:22.419Z,13.00
2023-05-08T19:56:50.510Z,15.50
2023-05-08T19:59:18.395Z,20.00
2023-05-08T20:01:46.322Z,18.00
2023-05-08T20:04:14.198Z,21.00
2023-05-08T20:06:42.649Z,20.00
2023-05-08T20:09:10.568Z,23.50
2023-05-08T20:11:38.355Z,21.00
2023-05-08T20:14:06.193Z,21.00
2023-05-08T20:16:34.254Z,17.50
2023-05-08T20:19:02.176Z,22.00
2023-05-08T20:21:32.562Z,16.00
2023-05-08T20:24:01.119Z,15.00
2023-05-08T20:26:29.604Z,14.00
2023-05-08T20:28:57.663Z,20.00
2023-05-08T20:31:27.788Z,15.00
2023-05-08T20:33:55.856Z,13.50
2023-05-08T20:36:23.749Z,14.00
2023-05-08T20:41:19.495Z,14.00
2023-05-08T20:43:47.433Z,13.00
2023-05-08T20:46:15.436Z,13.00
2023-05-08T20:48:43.648Z,11.00
2023-05-08T20:51:11.875Z,14.00
2023-05-08T20:53:40.180Z,13.50
2023-05-08T20:56:08.753Z,12.00
2023-05-08T20:58:36.720Z,16.33
2023-05-08T21:01:04.719Z,11.00
2023-05-08T21:03:32.569Z,12.50
2023-05-08T21:06:00.596Z,13.00
2023-05-08T21:08:28.630Z,12.50
2023-05-08T21:10:56.648Z,11.00
2023-05-08T21:13:25.447Z,14.00
2023-05-08T21:15:53.398Z,13.00
2023-05-08T21:18:21.364Z,13.50
2023-05-08T21:20:52.080Z,14.00
2023-05-08T21:23:20.592Z,11.00
2023-05-08T21:25:49.938Z,9.33
2023-05-08T21:28:17.879Z,12.00
2023-05-08T21:30:46.388Z,13.00
2023-05-08T21:33:14.421Z,12.00
2023-05-08T21:35:43.314Z,12.00
2023-05-08T21:38:14.007Z,11.00
2023-05-08T21:40:42.037Z,12.00
2023-05-08T21:43:09.947Z,12.50
2023-05-08T21:45:37.947Z,14.00
2023-05-08T21:48:06.199Z,17.00
2023-05-08T21:50:34.167Z,14.00
2023-05-08T21:53:02.089Z,13.00
2023-05-08T21:55:32.184Z,17.50
2023-05-08T21:58:00.278Z,14.00
2023-05-08T22:00:28.645Z,13.00
2023-05-08T22:02:56.717Z,17.00
2023-05-08T22:05:24.853Z,10.00
2023-05-08T22:07:52.733Z,15.50
2023-05-08T22:10:21.876Z,11.50
2023-05-08T22:12:49.831Z,11.00
2023-05-08T22:15:29.234Z,12.50
2023-05-08T22:18:00.376Z,13.50
2023-05-08T22:20:28.705Z,15.50
2023-05-08T22:22:56.661Z,12.00
2023-05-08T22:25:25.386Z,15.50
2023-05-08T22:27:53.267Z,13.00
2023-05-08T22:30:21.288Z,14.50
2023-05-08T22:32:58.242Z,15.00
2023-05-08T22:35:27.784Z,14.67
2023-05-08T22:37:58.094Z,12.50
2023-05-08T22:40:26.810Z,14.00
2023-05-08T22:42:56.043Z,11.50
2023-05-08T22:45:23.926Z,14.00
2023-05-08T22:47:51.974Z,11.00
2023-05-08T22:50:20.241Z,11.00
2023-05-08T22:52:48.285Z,13.00
2023-05-08T22:55:16.940Z,15.50
2023-05-08T22:57:44.952Z,13.00
2023-05-08T23:00:13.284Z,18.00
2023-05-08T23:02:41.210Z,13.00
2023-05-08T23:05:09.515Z,11.00
2023-05-08T23:07:37.343Z,13.00
2023-05-08T23:10:05.519Z,13.00
2023-05-08T23:12:33.336Z,15.00
2023-05-08T23:15:01.175Z,13.00
2023-05-08T23:17:29.091Z,14.00
2023-05-08T23:19:57.235Z,16.00
2023-05-08T23:22:25.164Z,14.00
2023-05-08T23:24:53.045Z,18.00
2023-05-08T23:27:20.891Z,15.00
2023-05-08T23:29:48.821Z,11.33
2023-05-08T23:32:16.765Z,3.00
2023-05-08T23:34:44.786Z,11.00
2023-05-08T23:37:12.689Z,13.50
2023-05-08T23:39:41.485Z,14.50
2023-05-08T23:42:09.809Z,14.00
2023-05-08T23:44:37.870Z,14.00
2023-05-08T23:47:06.240Z,17.00
2023-05-08T23:49:34.810Z,15.00
2023-05-08T23:52:02.849Z,18.50
2023-05-08T23:54:30.835Z,16.00
2023-05-08T23:56:58.686Z,15.50
2023-05-08T23:59:26.492Z,13.50
